sensor_id;sensor_type;location;lat;lon;timestamp;pressure;altitude;pressure_sealevel;temperature;humidity
46583;BME280;32309;48.858;8.252;2024-01-10T00:00:37;101304.81;;;-4.46;62.78
46583;BME280;32309;48.858;8.252;2024-01-10T00:02:38;101300.66;;;-4.44;62.97
46583;BME280;32309;48.858;8.252;2024-01-10T00:04:38;101291.47;;;-4.39;62.55
46583;BME280;32309;48.858;8.252;2024-01-10T00:06:39;101294.69;;;-4.46;61.94
46583;BME280;32309;48.858;8.252;2024-01-10T00:08:39;101292.25;;;-4.43;62.47
46583;BME280;32309;48.858;8.252;2024-01-10T00:10:40;101286.16;;;-4.50;62.63
46583;BME280;32309;48.858;8.252;2024-01-10T00:12:40;101291.13;;;-4.56;62.56
46583;BME280;32309;48.858;8.252;2024-01-10T00:14:44;101285.13;;;-4.60;63.08
46583;BME280;32309;48.858;8.252;2024-01-10T00:16:44;101286.88;;;-4.57;62.48
46583;BME280;32309;48.858;8.252;2024-01-10T00:18:44;101283.56;;;-4.55;62.60
46583;BME280;32309;48.858;8.252;2024-01-10T00:20:45;101279.25;;;-4.59;62.88
46583;BME280;32309;48.858;8.252;2024-01-10T00:22:45;101278.44;;;-4.58;63.22
46583;BME280;32309;48.858;8.252;2024-01-10T00:24:45;101273.38;;;-4.58;62.88
46583;BME280;32309;48.858;8.252;2024-01-10T00:26:45;101277.69;;;-4.54;62.68
46583;BME280;32309;48.858;8.252;2024-01-10T00:28:46;101270.97;;;-4.50;62.39
46583;BME280;32309;48.858;8.252;2024-01-10T00:30:46;101262.41;;;-4.57;62.61
46583;BME280;32309;48.858;8.252;2024-01-10T00:32:50;101261.59;;;-4.56;62.74
46583;BME280;32309;48.858;8.252;2024-01-10T00:34:50;101262.38;;;-4.58;63.23
46583;BME280;32309;48.858;8.252;2024-01-10T00:36:51;101260.03;;;-4.51;62.67
46583;BME280;32309;48.858;8.252;2024-01-10T00:38:52;101254.91;;;-4.54;63.04
46583;BME280;32309;48.858;8.252;2024-01-10T00:40:52;101254.94;;;-4.52;63.08
46583;BME280;32309;48.858;8.252;2024-01-10T00:42:53;101255.81;;;-4.50;62.98
46583;BME280;32309;48.858;8.252;2024-01-10T00:44:53;101257.53;;;-4.49;62.69
46583;BME280;32309;48.858;8.252;2024-01-10T00:46:56;101255.00;;;-4.47;62.33
46583;BME280;32309;48.858;8.252;2024-01-10T00:48:57;101251.69;;;-4.45;62.24
46583;BME280;32309;48.858;8.252;2024-01-10T00:50:57;101255.94;;;-4.44;62.81
46583;BME280;32309;48.858;8.252;2024-01-10T00:52:57;101253.41;;;-4.44;62.23
46583;BME280;32309;48.858;8.252;2024-01-10T00:54:58;101257.69;;;-4.40;62.43
46583;BME280;32309;48.858;8.252;2024-01-10T00:56:59;101256.75;;;-4.45;62.62
46583;BME280;32309;48.858;8.252;2024-01-10T00:58:59;101254.22;;;-4.45;62.83
46583;BME280;32309;48.858;8.252;2024-01-10T01:01:00;101260.06;;;-4.47;62.62
46583;BME280;32309;48.858;8.252;2024-01-10T01:03:00;101255.91;;;-4.45;63.12
46583;BME280;32309;48.858;8.252;2024-01-10T01:05:01;101257.66;;;-4.43;62.02
46583;BME280;32309;48.858;8.252;2024-01-10T01:07:02;101254.19;;;-4.46;62.54
46583;BME280;32309;48.858;8.252;2024-01-10T01:09:03;101270.16;;;-4.49;62.94
46583;BME280;32309;48.858;8.252;2024-01-10T01:11:03;101266.00;;;-4.47;62.74
46583;BME280;32309;48.858;8.252;2024-01-10T01:13:04;101266.84;;;-4.46;62.49
46583;BME280;32309;48.858;8.252;2024-01-10T01:15:04;101258.38;;;-4.48;63.05
46583;BME280;32309;48.858;8.252;2024-01-10T01:17:05;101258.47;;;-4.44;62.51
46583;BME280;32309;48.858;8.252;2024-01-10T01:19:05;101255.00;;;-4.49;63.61
46583;BME280;32309;48.858;8.252;2024-01-10T01:21:07;101256.69;;;-4.49;63.30
46583;BME280;32309;48.858;8.252;2024-01-10T01:23:08;101243.97;;;-4.53;63.41
46583;BME280;32309;48.858;8.252;2024-01-10T01:25:08;101263.34;;;-4.53;63.85
46583;BME280;32309;48.858;8.252;2024-01-10T01:27:08;101260.03;;;-4.51;63.29
46583;BME280;32309;48.858;8.252;2024-01-10T01:29:09;101260.88;;;-4.50;63.77
46583;BME280;32309;48.858;8.252;2024-01-10T01:31:09;101257.53;;;-4.47;63.05
46583;BME280;32309;48.858;8.252;2024-01-10T01:33:09;101252.53;;;-4.46;63.23
46583;BME280;32309;48.858;8.252;2024-01-10T01:35:10;101246.59;;;-4.48;63.65
46583;BME280;32309;48.858;8.252;2024-01-10T01:37:10;101260.03;;;-4.49;63.81
46583;BME280;32309;48.858;8.252;2024-01-10T01:39:10;101256.63;;;-4.53;63.29
46583;BME280;32309;48.858;8.252;2024-01-10T01:41:12;101252.41;;;-4.52;63.66
46583;BME280;32309;48.858;8.252;2024-01-10T01:43:20;101249.88;;;-4.52;63.57
46583;BME280;32309;48.858;8.252;2024-01-10T01:45:23;101249.94;;;-4.49;63.19
46583;BME280;32309;48.858;8.252;2024-01-10T01:47:24;101254.19;;;-4.46;63.07
46583;BME280;32309;48.858;8.252;2024-01-10T01:49:25;101244.84;;;-4.51;63.49
46583;BME280;32309;48.858;8.252;2024-01-10T01:51:26;101253.25;;;-4.52;63.80
46583;BME280;32309;48.858;8.252;2024-01-10T01:53:28;101248.22;;;-4.50;63.70
46583;BME280;32309;48.858;8.252;2024-01-10T01:55:29;101245.03;;;-4.41;63.30
46583;BME280;32309;48.858;8.252;2024-01-10T01:57:30;101240.75;;;-4.44;63.52
46583;BME280;32309;48.858;8.252;2024-01-10T01:59:31;101241.63;;;-4.43;63.52
46583;BME280;32309;48.858;8.252;2024-01-10T02:01:31;101243.25;;;-4.45;63.15
46583;BME280;32309;48.858;8.252;2024-01-10T02:03:32;101237.41;;;-4.43;62.99
46583;BME280;32309;48.858;8.252;2024-01-10T02:05:35;101240.69;;;-4.47;63.71
46583;BME280;32309;48.858;8.252;2024-01-10T02:07:36;101236.50;;;-4.45;63.43
46583;BME280;32309;48.858;8.252;2024-01-10T02:09:36;101239.16;;;-4.40;63.13
46583;BME280;32309;48.858;8.252;2024-01-10T02:11:37;101235.69;;;-4.44;63.47
46583;BME280;32309;48.858;8.252;2024-01-10T02:13:37;101239.00;;;-4.46;62.74
46583;BME280;32309;48.858;8.252;2024-01-10T02:15:38;101231.50;;;-4.43;63.19
46583;BME280;32309;48.858;8.252;2024-01-10T02:17:39;101233.03;;;-4.50;63.67
46583;BME280;32309;48.858;8.252;2024-01-10T02:19:40;101228.84;;;-4.49;63.25
46583;BME280;32309;48.858;8.252;2024-01-10T02:21:40;101230.59;;;-4.45;63.13
46583;BME280;32309;48.858;8.252;2024-01-10T02:23:40;101231.34;;;-4.51;64.09
46583;BME280;32309;48.858;8.252;2024-01-10T02:25:41;101232.22;;;-4.49;63.61
46583;BME280;32309;48.858;8.252;2024-01-10T02:27:43;101232.13;;;-4.54;63.79
46583;BME280;32309;48.858;8.252;2024-01-10T02:29:44;101236.59;;;-4.42;62.78
46583;BME280;32309;48.858;8.252;2024-01-10T02:31:44;101234.09;;;-4.40;62.94
46583;BME280;32309;48.858;8.252;2024-01-10T02:33:44;101233.97;;;-4.45;63.01
46583;BME280;32309;48.858;8.252;2024-01-10T02:35:45;101232.34;;;-4.43;63.28
46583;BME280;32309;48.858;8.252;2024-01-10T02:37:45;101231.53;;;-4.42;62.71
46583;BME280;32309;48.858;8.252;2024-01-10T02:39:45;101235.78;;;-4.39;63.37
46583;BME280;32309;48.858;8.252;2024-01-10T02:41:48;101238.31;;;-4.39;63.32
46583;BME280;32309;48.858;8.252;2024-01-10T02:43:49;101231.78;;;-4.26;61.98
46583;BME280;32309;48.858;8.252;2024-01-10T02:45:50;101238.66;;;-4.22;61.76
46583;BME280;32309;48.858;8.252;2024-01-10T02:47:52;101229.25;;;-4.28;62.38
46583;BME280;32309;48.858;8.252;2024-01-10T02:49:53;101233.47;;;-4.28;62.21
46583;BME280;32309;48.858;8.252;2024-01-10T02:51:53;101232.66;;;-4.26;61.72
46583;BME280;32309;48.858;8.252;2024-01-10T02:53:53;101229.34;;;-4.23;62.06
46583;BME280;32309;48.858;8.252;2024-01-10T02:55:53;101225.13;;;-4.23;61.62
46583;BME280;32309;48.858;8.252;2024-01-10T02:57:56;101224.28;;;-4.23;61.83
46583;BME280;32309;48.858;8.252;2024-01-10T02:59:56;101220.84;;;-4.27;62.16
46583;BME280;32309;48.858;8.252;2024-01-10T03:01:56;101222.53;;;-4.26;61.79
46583;BME280;32309;48.858;8.252;2024-01-10T03:03:57;101224.28;;;-4.23;62.26
46583;BME280;32309;48.858;8.252;2024-01-10T03:05:57;101216.56;;;-4.29;62.35
46583;BME280;32309;48.858;8.252;2024-01-10T03:07:57;101213.19;;;-4.30;62.12
46583;BME280;32309;48.858;8.252;2024-01-10T03:09:58;101214.00;;;-4.31;62.35
46583;BME280;32309;48.858;8.252;2024-01-10T03:11:58;101213.16;;;-4.31;62.13
46583;BME280;32309;48.858;8.252;2024-01-10T03:14:02;101200.44;;;-4.35;62.77
46583;BME280;32309;48.858;8.252;2024-01-10T03:16:09;101202.94;;;-4.36;62.89
46583;BME280;32309;48.858;8.252;2024-01-10T03:18:09;101206.31;;;-4.36;63.52
46583;BME280;32309;48.858;8.252;2024-01-10T03:20:09;101197.09;;;-4.33;63.67
46583;BME280;32309;48.858;8.252;2024-01-10T03:22:10;101203.91;;;-4.29;62.53
46583;BME280;32309;48.858;8.252;2024-01-10T03:24:13;101200.50;;;-4.31;63.45
46583;BME280;32309;48.858;8.252;2024-01-10T03:26:21;101199.66;;;-4.30;62.91
46583;BME280;32309;48.858;8.252;2024-01-10T03:28:21;101203.88;;;-4.32;63.08
46583;BME280;32309;48.858;8.252;2024-01-10T03:30:21;101203.88;;;-4.31;63.56
46583;BME280;32309;48.858;8.252;2024-01-10T03:32:24;101211.47;;;-4.31;63.04
46583;BME280;32309;48.858;8.252;2024-01-10T03:34:25;101218.25;;;-4.30;63.32
46583;BME280;32309;48.858;8.252;2024-01-10T03:36:28;101219.13;;;-4.28;63.30
46583;BME280;32309;48.858;8.252;2024-01-10T03:38:28;101215.78;;;-4.25;63.02
46583;BME280;32309;48.858;8.252;2024-01-10T03:40:28;101213.25;;;-4.27;62.78
46583;BME280;32309;48.858;8.252;2024-01-10T03:42:29;101219.19;;;-4.25;62.73
46583;BME280;32309;48.858;8.252;2024-01-10T03:44:29;101218.25;;;-4.30;63.49
46583;BME280;32309;48.858;8.252;2024-01-10T03:46:29;101218.28;;;-4.28;63.72
46583;BME280;32309;48.858;8.252;2024-01-10T03:48:30;101224.19;;;-4.28;63.38
46583;BME280;32309;48.858;8.252;2024-01-10T03:50:30;101220.84;;;-4.25;63.45
46583;BME280;32309;48.858;8.252;2024-01-10T03:52:31;101227.63;;;-4.24;64.05
46583;BME280;32309;48.858;8.252;2024-01-10T03:54:32;101220.06;;;-4.23;64.02
46583;BME280;32309;48.858;8.252;2024-01-10T03:56:33;101220.09;;;-4.21;63.98
46583;BME280;32309;48.858;8.252;2024-01-10T03:58:34;101228.53;;;-4.22;64.07
46583;BME280;32309;48.858;8.252;2024-01-10T04:00:34;101221.72;;;-4.25;63.64
46583;BME280;32309;48.858;8.252;2024-01-10T04:02:36;101226.03;;;-4.21;63.86
46583;BME280;32309;48.858;8.252;2024-01-10T04:04:37;101227.72;;;-4.20;63.77
46583;BME280;32309;48.858;8.252;2024-01-10T04:06:38;101231.09;;;-4.21;63.65
46583;BME280;32309;48.858;8.252;2024-01-10T04:08:39;101225.16;;;-4.21;64.08
46583;BME280;32309;48.858;8.252;2024-01-10T04:10:39;101231.09;;;-4.19;64.67
46583;BME280;32309;48.858;8.252;2024-01-10T04:12:40;101232.88;;;-4.15;65.08
46583;BME280;32309;48.858;8.252;2024-01-10T04:14:40;101229.53;;;-4.12;64.34
46583;BME280;32309;48.858;8.252;2024-01-10T04:16:40;101231.25;;;-4.11;64.13
46583;BME280;32309;48.858;8.252;2024-01-10T04:18:41;101227.03;;;-4.11;64.33
46583;BME280;32309;48.858;8.252;2024-01-10T04:20:41;101221.16;;;-4.08;64.70
46583;BME280;32309;48.858;8.252;2024-01-10T04:22:42;101221.19;;;-4.07;64.71
46583;BME280;32309;48.858;8.252;2024-01-10T04:24:42;101223.75;;;-4.05;64.54
46583;BME280;32309;48.858;8.252;2024-01-10T04:26:42;101228.00;;;-4.03;64.08
46583;BME280;32309;48.858;8.252;2024-01-10T04:28:43;101224.69;;;-4.00;64.30
46583;BME280;32309;48.858;8.252;2024-01-10T04:30:44;101220.53;;;-3.96;64.22
46583;BME280;32309;48.858;8.252;2024-01-10T04:32:44;101218.81;;;-3.99;63.48
46583;BME280;32309;48.858;8.252;2024-01-10T04:34:45;101216.28;;;-3.99;63.50
46583;BME280;32309;48.858;8.252;2024-01-10T04:36:45;101221.31;;;-4.01;64.02
46583;BME280;32309;48.858;8.252;2024-01-10T04:38:45;101223.06;;;-3.96;63.78
46583;BME280;32309;48.858;8.252;2024-01-10T04:40:46;101223.97;;;-3.94;63.35
46583;BME280;32309;48.858;8.252;2024-01-10T04:42:46;101224.78;;;-3.95;63.51
46583;BME280;32309;48.858;8.252;2024-01-10T04:44:46;101223.09;;;-3.93;63.89
46583;BME280;32309;48.858;8.252;2024-01-10T04:46:46;101223.09;;;-3.95;63.83
46583;BME280;32309;48.858;8.252;2024-01-10T04:48:47;101222.22;;;-3.97;63.72
46583;BME280;32309;48.858;8.252;2024-01-10T04:50:47;101220.56;;;-3.95;63.20
46583;BME280;32309;48.858;8.252;2024-01-10T04:52:47;101223.09;;;-3.93;63.26
46583;BME280;32309;48.858;8.252;2024-01-10T04:54:48;101219.72;;;-3.94;63.29
46583;BME280;32309;48.858;8.252;2024-01-10T04:56:48;101220.56;;;-3.95;64.04
46583;BME280;32309;48.858;8.252;2024-01-10T04:58:48;101221.44;;;-3.94;63.59
46583;BME280;32309;48.858;8.252;2024-01-10T05:00:48;101221.44;;;-3.94;63.62
46583;BME280;32309;48.858;8.252;2024-01-10T05:02:49;101229.03;;;-3.93;63.14
46583;BME280;32309;48.858;8.252;2024-01-10T05:04:49;101228.19;;;-3.93;63.87
46583;BME280;32309;48.858;8.252;2024-01-10T05:06:50;101226.50;;;-3.93;63.65
46583;BME280;32309;48.858;8.252;2024-01-10T05:08:50;101228.16;;;-3.95;63.64
46583;BME280;32309;48.858;8.252;2024-01-10T05:10:50;101227.31;;;-3.95;63.90
46583;BME280;32309;48.858;8.252;2024-01-10T05:12:50;101222.22;;;-3.97;63.36
46583;BME280;32309;48.858;8.252;2024-01-10T05:14:51;101228.16;;;-3.95;64.15
46583;BME280;32309;48.858;8.252;2024-01-10T05:16:52;101227.34;;;-3.94;63.40
46583;BME280;32309;48.858;8.252;2024-01-10T05:18:53;101222.28;;;-3.94;63.26
46583;BME280;32309;48.858;8.252;2024-01-10T05:20:54;101218.88;;;-3.96;64.07
46583;BME280;32309;48.858;8.252;2024-01-10T05:22:54;101217.16;;;-3.97;64.51
46583;BME280;32309;48.858;8.252;2024-01-10T05:24:58;101213.06;;;-3.89;63.51
46583;BME280;32309;48.858;8.252;2024-01-10T05:26:58;101218.91;;;-3.94;63.94
46583;BME280;32309;48.858;8.252;2024-01-10T05:28:58;101217.13;;;-3.98;63.80
46583;BME280;32309;48.858;8.252;2024-01-10T05:30:59;101225.47;;;-4.04;64.34
46583;BME280;32309;48.858;8.252;2024-01-10T05:32:59;101228.88;;;-4.04;64.49
46583;BME280;32309;48.858;8.252;2024-01-10T05:35:00;101221.22;;;-4.05;64.41
46583;BME280;32309;48.858;8.252;2024-01-10T05:37:00;101222.06;;;-4.06;64.48
46583;BME280;32309;48.858;8.252;2024-01-10T05:39:00;101231.28;;;-4.08;64.62
46583;BME280;32309;48.858;8.252;2024-01-10T05:41:00;101227.06;;;-4.09;64.78
46583;BME280;32309;48.858;8.252;2024-01-10T05:43:04;101227.03;;;-4.11;64.73
46583;BME280;32309;48.858;8.252;2024-01-10T05:45:12;101224.50;;;-4.11;65.20
46583;BME280;32309;48.858;8.252;2024-01-10T05:47:13;101218.63;;;-4.10;65.40
46583;BME280;32309;48.858;8.252;2024-01-10T05:49:13;101228.75;;;-4.10;65.25
46583;BME280;32309;48.858;8.252;2024-01-10T05:51:14;101228.69;;;-4.13;65.56
46583;BME280;32309;48.858;8.252;2024-01-10T05:53:15;101223.63;;;-4.13;65.58
46583;BME280;32309;48.858;8.252;2024-01-10T05:55:17;101223.56;;;-4.16;65.31
46583;BME280;32309;48.858;8.252;2024-01-10T05:57:17;101220.09;;;-4.21;66.15
46583;BME280;32309;48.858;8.252;2024-01-10T05:59:17;101225.94;;;-4.24;66.03
46583;BME280;32309;48.858;8.252;2024-01-10T06:01:18;101222.53;;;-4.27;65.94
46583;BME280;32309;48.858;8.252;2024-01-10T06:03:18;101228.34;;;-4.31;65.92
46583;BME280;32309;48.858;8.252;2024-01-10T06:05:19;101222.44;;;-4.30;66.69
46583;BME280;32309;48.858;8.252;2024-01-10T06:07:20;101214.81;;;-4.32;66.54
46583;BME280;32309;48.858;8.252;2024-01-10T06:09:21;101213.13;;;-4.33;66.73
46583;BME280;32309;48.858;8.252;2024-01-10T06:11:21;101210.63;;;-4.31;66.80
46583;BME280;32309;48.858;8.252;2024-01-10T06:13:22;101224.13;;;-4.32;66.51
46583;BME280;32309;48.858;8.252;2024-01-10T06:15:22;101223.16;;;-4.39;66.66
46583;BME280;32309;48.858;8.252;2024-01-10T06:17:23;101219.75;;;-4.38;66.98
46583;BME280;32309;48.858;8.252;2024-01-10T06:19:26;101220.63;;;-4.39;67.09
46583;BME280;32309;48.858;8.252;2024-01-10T06:21:26;101216.34;;;-4.42;66.67
46583;BME280;32309;48.858;8.252;2024-01-10T06:23:27;101220.50;;;-4.44;66.75
46583;BME280;32309;48.858;8.252;2024-01-10T06:25:27;101225.53;;;-4.47;66.83
46583;BME280;32309;48.858;8.252;2024-01-10T06:27:27;101227.06;;;-4.54;67.38
46583;BME280;32309;48.858;8.252;2024-01-10T06:29:27;101231.25;;;-4.54;67.42
46583;BME280;32309;48.858;8.252;2024-01-10T06:31:28;101227.88;;;-4.56;67.17
46583;BME280;32309;48.858;8.252;2024-01-10T06:33:28;101227.78;;;-4.59;67.39
46583;BME280;32309;48.858;8.252;2024-01-10T06:35:28;101222.69;;;-4.61;67.44
46583;BME280;32309;48.858;8.252;2024-01-10T06:37:29;101231.81;;;-4.69;67.40
46583;BME280;32309;48.858;8.252;2024-01-10T06:39:31;101235.97;;;-4.71;67.32
46583;BME280;32309;48.858;8.252;2024-01-10T06:41:32;101236.84;;;-4.71;67.93
46583;BME280;32309;48.858;8.252;2024-01-10T06:43:33;101237.66;;;-4.72;67.72
46583;BME280;32309;48.858;8.252;2024-01-10T06:45:34;101237.63;;;-4.73;67.23
46583;BME280;32309;48.858;8.252;2024-01-10T06:47:34;101249.38;;;-4.75;67.57
46583;BME280;32309;48.858;8.252;2024-01-10T06:49:35;101248.50;;;-4.79;68.19
46583;BME280;32309;48.858;8.252;2024-01-10T06:51:36;101252.72;;;-4.78;68.10
46583;BME280;32309;48.858;8.252;2024-01-10T06:53:38;101252.72;;;-4.78;68.35
46583;BME280;32309;48.858;8.252;2024-01-10T06:55:38;101244.28;;;-4.78;67.84
46583;BME280;32309;48.858;8.252;2024-01-10T06:57:41;101251.03;;;-4.79;68.45
46583;BME280;32309;48.858;8.252;2024-01-10T06:59:42;101255.22;;;-4.78;67.96
46583;BME280;32309;48.858;8.252;2024-01-10T07:01:42;101253.56;;;-4.79;68.19
46583;BME280;32309;48.858;8.252;2024-01-10T07:03:43;101253.56;;;-4.79;67.73
46583;BME280;32309;48.858;8.252;2024-01-10T07:05:48;101262.13;;;-4.72;67.78
46583;BME280;32309;48.858;8.252;2024-01-10T07:07:48;101266.44;;;-4.66;67.46
46583;BME280;32309;48.858;8.252;2024-01-10T07:09:49;101264.94;;;-4.57;67.64
46583;BME280;32309;48.858;8.252;2024-01-10T07:11:49;101268.31;;;-4.58;67.08
46583;BME280;32309;48.858;8.252;2024-01-10T07:13:50;101257.09;;;-4.71;68.06
46583;BME280;32309;48.858;8.252;2024-01-10T07:15:50;101267.88;;;-4.78;68.28
46583;BME280;32309;48.858;8.252;2024-01-10T07:17:52;101273.78;;;-4.79;68.19
46583;BME280;32309;48.858;8.252;2024-01-10T07:19:52;101266.06;;;-4.85;68.66
46583;BME280;32309;48.858;8.252;2024-01-10T07:21:56;101268.44;;;-4.91;68.40
46583;BME280;32309;48.858;8.252;2024-01-10T07:23:56;101273.50;;;-4.91;67.85
46583;BME280;32309;48.858;8.252;2024-01-10T07:25:57;101276.00;;;-4.93;68.38
46583;BME280;32309;48.858;8.252;2024-01-10T07:27:57;101275.03;;;-4.98;68.50
46583;BME280;32309;48.858;8.252;2024-01-10T07:29:58;101278.34;;;-5.01;68.45
46583;BME280;32309;48.858;8.252;2024-01-10T07:31:59;101280.97;;;-4.97;68.20
46583;BME280;32309;48.858;8.252;2024-01-10T07:33:59;101279.25;;;-4.98;67.95
46583;BME280;32309;48.858;8.252;2024-01-10T07:36:00;101286.81;;;-5.00;68.24
46583;BME280;32309;48.858;8.252;2024-01-10T07:38:01;101283.38;;;-5.02;67.87
46583;BME280;32309;48.858;8.252;2024-01-10T07:40:01;101290.97;;;-5.02;67.48
46583;BME280;32309;48.858;8.252;2024-01-10T07:42:04;101291.88;;;-5.00;67.32
46583;BME280;32309;48.858;8.252;2024-01-10T07:44:07;101293.47;;;-5.04;67.83
46583;BME280;32309;48.858;8.252;2024-01-10T07:46:09;101296.78;;;-5.06;67.67
46583;BME280;32309;48.858;8.252;2024-01-10T07:48:11;101300.91;;;-5.08;67.93
46583;BME280;32309;48.858;8.252;2024-01-10T07:50:11;101305.09;;;-5.10;67.91
46583;BME280;32309;48.858;8.252;2024-01-10T07:52:14;101305.09;;;-5.10;68.28
46583;BME280;32309;48.858;8.252;2024-01-10T07:54:19;101305.16;;;-5.07;68.28
46583;BME280;32309;48.858;8.252;2024-01-10T07:56:19;101300.91;;;-5.08;68.08
46583;BME280;32309;48.858;8.252;2024-01-10T07:58:20;101304.31;;;-5.08;68.40
46583;BME280;32309;48.858;8.252;2024-01-10T08:00:20;101306.94;;;-5.03;68.37
46583;BME280;32309;48.858;8.252;2024-01-10T08:02:20;101301.00;;;-5.05;68.21
46583;BME280;32309;48.858;8.252;2024-01-10T08:04:21;101303.50;;;-5.07;68.30
46583;BME280;32309;48.858;8.252;2024-01-10T08:06:21;101308.66;;;-5.02;68.16
46583;BME280;32309;48.858;8.252;2024-01-10T08:08:21;101315.50;;;-4.98;68.52
46583;BME280;32309;48.858;8.252;2024-01-10T08:10:22;101314.66;;;-4.98;68.24
46583;BME280;32309;48.858;8.252;2024-01-10T08:12:22;101316.38;;;-4.97;68.44
46583;BME280;32309;48.858;8.252;2024-01-10T08:14:23;101322.22;;;-4.98;68.40
46583;BME280;32309;48.858;8.252;2024-01-10T08:16:23;101327.28;;;-4.98;68.82
46583;BME280;32309;48.858;8.252;2024-01-10T08:18:24;101318.00;;;-4.98;69.09
46583;BME280;32309;48.858;8.252;2024-01-10T08:20:24;101323.19;;;-4.93;68.17
46583;BME280;32309;48.858;8.252;2024-01-10T08:22:24;101322.34;;;-4.92;68.18
46583;BME280;32309;48.858;8.252;2024-01-10T08:24:24;101320.13;;;-4.80;68.30
46583;BME280;32309;48.858;8.252;2024-01-10T08:26:26;101316.06;;;-4.73;68.64
46583;BME280;32309;48.858;8.252;2024-01-10T08:28:27;101319.41;;;-4.73;68.03
46583;BME280;32309;48.858;8.252;2024-01-10T08:30:27;101311.00;;;-4.73;68.00
46583;BME280;32309;48.858;8.252;2024-01-10T08:32:27;101307.56;;;-4.75;68.20
46583;BME280;32309;48.858;8.252;2024-01-10T08:34:27;101310.94;;;-4.76;68.00
46583;BME280;32309;48.858;8.252;2024-01-10T08:36:28;101309.19;;;-4.79;68.42
46583;BME280;32309;48.858;8.252;2024-01-10T08:38:29;101315.94;;;-4.78;68.64
46583;BME280;32309;48.858;8.252;2024-01-10T08:40:29;101314.38;;;-4.73;68.22
46583;BME280;32309;48.858;8.252;2024-01-10T08:42:30;101311.00;;;-4.73;67.98
46583;BME280;32309;48.858;8.252;2024-01-10T08:44:30;101306.91;;;-4.68;68.47
46583;BME280;32309;48.858;8.252;2024-01-10T08:46:30;101302.84;;;-4.60;68.07
46583;BME280;32309;48.858;8.252;2024-01-10T08:48:31;101306.16;;;-4.62;67.90
46583;BME280;32309;48.858;8.252;2024-01-10T08:50:32;101301.91;;;-4.63;68.28
46583;BME280;32309;48.858;8.252;2024-01-10T08:52:34;101311.28;;;-4.59;68.57
46583;BME280;32309;48.858;8.252;2024-01-10T08:54:37;101308.03;;;-4.54;67.98
46583;BME280;32309;48.858;8.252;2024-01-10T08:56:37;101320.66;;;-4.55;67.73
46583;BME280;32309;48.858;8.252;2024-01-10T08:58:41;101318.16;;;-4.54;68.79
46583;BME280;32309;48.858;8.252;2024-01-10T09:00:41;101322.41;;;-4.53;68.41
46583;BME280;32309;48.858;8.252;2024-01-10T09:02:41;101319.16;;;-4.47;68.48
46583;BME280;32309;48.858;8.252;2024-01-10T09:04:42;101317.53;;;-4.43;68.12
46583;BME280;32309;48.858;8.252;2024-01-10T09:06:45;101323.44;;;-4.43;68.43
46583;BME280;32309;48.858;8.252;2024-01-10T09:08:46;101326.06;;;-4.38;68.63
46583;BME280;32309;48.858;8.252;2024-01-10T09:10:46;101330.34;;;-4.36;68.77
46583;BME280;32309;48.858;8.252;2024-01-10T09:12:49;101326.31;;;-4.27;68.05
46583;BME280;32309;48.858;8.252;2024-01-10T09:14:49;101336.47;;;-4.24;67.93
46583;BME280;32309;48.858;8.252;2024-01-10T09:16:50;101328.91;;;-4.23;67.64
46583;BME280;32309;48.858;8.252;2024-01-10T09:18:50;101326.41;;;-4.21;67.61
46583;BME280;32309;48.858;8.252;2024-01-10T09:20:54;101321.47;;;-4.15;67.19
46583;BME280;32309;48.858;8.252;2024-01-10T09:22:54;101323.25;;;-4.11;67.58
46583;BME280;32309;48.858;8.252;2024-01-10T09:24:54;101326.69;;;-4.07;67.34
46583;BME280;32309;48.858;8.252;2024-01-10T09:26:55;101328.44;;;-4.05;67.09
46583;BME280;32309;48.858;8.252;2024-01-10T09:28:56;101330.06;;;-4.07;67.13
46583;BME280;32309;48.858;8.252;2024-01-10T09:30:56;101336.03;;;-4.05;67.67
46583;BME280;32309;48.858;8.252;2024-01-10T09:32:57;101334.38;;;-4.03;67.29
46583;BME280;32309;48.858;8.252;2024-01-10T09:34:59;101326.03;;;-3.98;68.01
46583;BME280;32309;48.858;8.252;2024-01-10T09:37:00;101328.59;;;-3.97;67.46
46583;BME280;32309;48.858;8.252;2024-01-10T09:39:01;101315.16;;;-3.93;67.61
46583;BME280;32309;48.858;8.252;2024-01-10T09:41:05;101332.09;;;-3.90;68.57
46583;BME280;32309;48.858;8.252;2024-01-10T09:43:06;101337.22;;;-3.87;67.25
46583;BME280;32309;48.858;8.252;2024-01-10T09:45:07;101330.50;;;-3.85;67.79
46583;BME280;32309;48.858;8.252;2024-01-10T09:47:09;101326.38;;;-3.80;67.64
46583;BME280;32309;48.858;8.252;2024-01-10T09:49:12;101335.72;;;-3.77;67.47
46583;BME280;32309;48.858;8.252;2024-01-10T09:51:14;101335.72;;;-3.77;67.69
46583;BME280;32309;48.858;8.252;2024-01-10T09:53:18;101339.09;;;-3.77;67.78
46583;BME280;32309;48.858;8.252;2024-01-10T09:55:23;101334.97;;;-3.72;68.09
46583;BME280;32309;48.858;8.252;2024-01-10T09:57:29;101341.00;;;-3.65;67.26
46583;BME280;32309;48.858;8.252;2024-01-10T09:59:31;101335.97;;;-3.63;67.76
46583;BME280;32309;48.858;8.252;2024-01-10T10:01:32;101337.72;;;-3.59;67.07
46583;BME280;32309;48.858;8.252;2024-01-10T10:03:33;101336.09;;;-3.56;67.44
46583;BME280;32309;48.858;8.252;2024-01-10T10:05:38;101344.63;;;-3.52;66.64
46583;BME280;32309;48.858;8.252;2024-01-10T10:07:45;101347.16;;;-3.51;66.43
46583;BME280;32309;48.858;8.252;2024-01-10T10:09:50;101340.44;;;-3.48;66.56
46583;BME280;32309;48.858;8.252;2024-01-10T10:11:56;101344.84;;;-3.38;66.44
46583;BME280;32309;48.858;8.252;2024-01-10T10:14:13;101335.53;;;-3.39;66.46
46583;BME280;32309;48.858;8.252;2024-01-10T10:16:14;101340.59;;;-3.39;66.37
46583;BME280;32309;48.858;8.252;2024-01-10T10:18:25;101339.88;;;-3.33;66.23
46583;BME280;32309;48.858;8.252;2024-01-10T10:20:29;101345.88;;;-3.28;66.20
46583;BME280;32309;48.858;8.252;2024-01-10T10:22:36;101340.00;;;-3.24;66.90
46583;BME280;32309;48.858;8.252;2024-01-10T10:24:39;101338.44;;;-3.18;66.82
46583;BME280;32309;48.858;8.252;2024-01-10T10:26:41;101341.13;;;-3.08;66.17
46583;BME280;32309;48.858;8.252;2024-01-10T10:28:42;101337.91;;;-2.98;65.35
46583;BME280;32309;48.858;8.252;2024-01-10T10:30:42;101336.25;;;-2.94;65.14
46583;BME280;32309;48.858;8.252;2024-01-10T10:32:45;101328.69;;;-2.93;65.92